Time;durP1;ratioP1;P1;durP2;ratioP2;P2;SDS_P1;SDS_P2;PMS_P1;PMS_P2;Temp;Humidity;BMP_temperature;BMP_pressure;BME280_temperature;BME280_humidity;BME280_pressure;Samples;Min_cycle;Max_cycle;Signal;HPM_P1;HPM_P2
2022/04/25 00:00:22;;;;;;;5.63;5.20;;;9.60;99.90;;;;;;5065824;28;20204;-77
2022/04/25 00:02:50;;;;;;;5.10;4.70;;;9.60;99.90;;;;;;5063663;28;20208;-77
2022/04/25 00:05:17;;;;;;;4.57;4.20;;;9.60;99.90;;;;;;5069559;28;20686;-78
2022/04/25 00:07:44;;;;;;;5.10;4.70;;;9.60;99.90;;;;;;5063794;28;20290;-78
2022/04/25 00:10:11;;;;;;;5.10;4.70;;;9.60;99.90;;;;;;5060986;28;20587;-78
2022/04/25 00:12:39;;;;;;;4.97;4.57;;;9.50;99.90;;;;;;5061142;28;20189;-77
2022/04/25 00:15:07;;;;;;;5.07;4.73;;;9.60;99.90;;;;;;5083759;28;20210;-78
2022/04/25 00:17:34;;;;;;;5.20;4.80;;;9.60;99.90;;;;;;5084847;28;20186;-77
2022/04/25 00:20:01;;;;;;;5.40;4.93;;;9.60;99.90;;;;;;5067266;28;20190;-77
2022/04/25 00:22:28;;;;;;;4.93;4.53;;;9.60;99.90;;;;;;5061050;28;20190;-78
2022/04/25 00:24:55;;;;;;;5.00;4.43;;;9.60;99.90;;;;;;5067063;28;20194;-77
2022/04/25 00:27:22;;;;;;;4.70;4.40;;;9.50;99.90;;;;;;5084534;28;20221;-77
2022/04/25 00:29:50;;;;;;;5.87;5.37;;;9.60;99.90;;;;;;5084955;28;20182;-78
2022/04/25 00:32:17;;;;;;;5.30;4.90;;;9.60;99.90;;;;;;5082908;28;20203;-78
2022/04/25 00:34:43;;;;;;;6.43;5.17;;;9.50;99.90;;;;;;5084763;28;20243;-77
2022/04/25 00:37:10;;;;;;;5.60;5.17;;;9.50;99.90;;;;;;5065731;28;20197;-77
2022/04/25 00:39:37;;;;;;;5.57;5.07;;;9.60;99.90;;;;;;5067358;28;20189;-78
2022/04/25 00:42:04;;;;;;;5.70;5.20;;;9.60;99.90;;;;;;5084480;28;20197;-77
2022/04/25 00:44:31;;;;;;;5.30;4.80;;;9.50;99.90;;;;;;5065766;28;20198;-77
2022/04/25 00:47:00;;;;;;;5.27;4.87;;;9.50;99.90;;;;;;5066387;28;20221;-77
2022/04/25 00:49:27;;;;;;;5.87;5.33;;;9.50;99.90;;;;;;5064585;28;20198;-77
2022/04/25 00:51:54;;;;;;;6.07;5.53;;;9.60;99.90;;;;;;5084368;28;20239;-77
2022/04/25 00:54:22;;;;;;;5.40;4.90;;;9.50;99.90;;;;;;5065393;28;20198;-77
2022/04/25 00:56:49;;;;;;;5.90;5.30;;;9.50;99.90;;;;;;5066068;28;20278;-78
2022/04/25 00:59:17;;;;;;;6.37;5.30;;;9.50;99.90;;;;;;5062053;28;20209;-78
2022/04/25 01:01:44;;;;;;;5.43;4.87;;;9.50;99.90;;;;;;5063312;28;20225;-78
2022/04/25 01:04:13;;;;;;;6.37;5.77;;;9.50;99.90;;;;;;5066209;28;20205;-77
2022/04/25 01:06:40;;;;;;;6.93;6.33;;;9.50;99.90;;;;;;5060200;28;20244;-78
2022/04/25 01:09:07;;;;;;;6.80;6.20;;;9.50;99.90;;;;;;5058458;28;20198;-78
2022/04/25 01:11:34;;;;;;;7.43;6.83;;;9.50;99.90;;;;;;5082309;28;20194;-77
2022/04/25 01:14:15;;;;;;;7.50;6.80;;;9.50;99.90;;;;;;5055800;28;20201;-78
2022/04/25 01:16:43;;;;;;;8.00;7.20;;;9.50;99.90;;;;;;5049806;28;20219;-78
2022/04/25 01:19:10;;;;;;;7.20;6.60;;;9.50;99.90;;;;;;5080157;28;20205;-78
2022/04/25 01:21:42;;;;;;;6.87;6.27;;;9.50;99.90;;;;;;5049399;28;20675;-77
2022/04/25 01:29:41;;;;;;;6.70;6.10;;;9.50;99.90;;;;;;5054787;28;20240;-77
2022/04/25 01:32:09;;;;;;;6.80;6.20;;;9.50;99.90;;;;;;5059688;28;20278;-78
2022/04/25 01:34:37;;;;;;;7.50;6.90;;;9.60;99.90;;;;;;5065700;28;20186;-78
2022/04/25 01:37:09;;;;;;;7.00;6.40;;;9.60;99.90;;;;;;5060272;28;20739;-77
2022/04/25 01:39:39;;;;;;;6.90;6.30;;;9.50;99.90;;;;;;5050812;28;20238;-77
2022/04/25 01:42:07;;;;;;;6.90;6.40;;;9.50;99.90;;;;;;5050075;28;20209;-78
2022/04/25 01:44:35;;;;;;;6.50;6.00;;;9.50;99.90;;;;;;5062156;28;20573;-78
2022/04/25 01:47:02;;;;;;;6.80;6.20;;;9.50;99.90;;;;;;5116778;22;20222;-78
2022/04/25 01:49:29;;;;;;;6.70;6.20;;;9.50;99.90;;;;;;5110286;28;20213;-79
2022/04/25 01:51:57;;;;;;;7.27;6.57;;;9.50;99.90;;;;;;5113618;28;20193;-78
2022/04/25 01:54:26;;;;;;;6.80;6.20;;;9.40;99.90;;;;;;5116308;28;20227;-79
2022/04/25 01:56:55;;;;;;;7.20;6.60;;;9.40;99.90;;;;;;5101456;28;20289;-79
2022/04/25 01:59:23;;;;;;;7.20;6.60;;;9.40;99.90;;;;;;5105921;28;20284;-79
2022/04/25 02:01:51;;;;;;;6.60;6.10;;;9.40;99.90;;;;;;5102985;28;20229;-78
2022/04/25 02:04:19;;;;;;;7.80;7.20;;;9.50;99.90;;;;;;5106675;28;20190;-78
2022/04/25 02:06:47;;;;;;;7.30;6.70;;;9.50;99.90;;;;;;5105664;28;20227;-78
2022/04/25 02:09:13;;;;;;;6.90;6.40;;;9.50;99.90;;;;;;5106717;28;20208;-79
2022/04/25 02:11:41;;;;;;;7.93;7.23;;;9.50;99.90;;;;;;5101971;28;20721;-79
2022/04/25 02:14:09;;;;;;;8.63;7.93;;;9.50;99.90;;;;;;5101570;28;20478;-78
2022/04/25 02:16:36;;;;;;;7.80;7.20;;;9.50;99.90;;;;;;5103335;28;20212;-79
2022/04/25 02:19:03;;;;;;;8.67;7.97;;;9.50;99.90;;;;;;5104258;28;20193;-79
2022/04/25 02:21:30;;;;;;;7.83;7.23;;;9.50;99.90;;;;;;5106302;28;20299;-78
2022/04/25 02:23:57;;;;;;;9.10;8.30;;;9.50;99.90;;;;;;5116237;28;20189;-79
2022/04/25 02:26:24;;;;;;;8.37;7.67;;;9.40;99.90;;;;;;5107573;28;20217;-79
2022/04/25 02:28:54;;;;;;;8.53;7.83;;;9.50;99.90;;;;;;5107225;28;20197;-78
2022/04/25 02:31:24;;;;;;;8.67;7.87;;;9.50;99.90;;;;;;5102588;28;20170;-78
2022/04/25 02:33:51;;;;;;;8.50;7.80;;;9.40;99.90;;;;;;5106403;28;20197;-78
2022/04/25 02:36:19;;;;;;;8.10;7.40;;;9.40;99.90;;;;;;5107008;28;20212;-78
2022/04/25 02:38:46;;;;;;;8.53;7.83;;;9.40;99.90;;;;;;5115870;28;20197;-78
2022/04/25 02:41:13;;;;;;;9.20;8.40;;;9.40;99.90;;;;;;5112047;28;20197;-78
2022/04/25 02:43:41;;;;;;;9.17;8.37;;;9.40;99.90;;;;;;5106753;28;20193;-83
2022/04/25 02:46:10;;;;;;;10.00;9.10;;;9.40;99.90;;;;;;5114146;28;20312;-84
2022/04/25 02:48:40;;;;;;;9.17;8.37;;;9.40;99.90;;;;;;5114386;28;20201;-83
2022/04/25 02:51:08;;;;;;;8.90;8.20;;;9.30;99.90;;;;;;5102817;28;20285;-79
2022/04/25 02:53:36;;;;;;;9.70;8.90;;;9.40;99.90;;;;;;5093371;28;20213;-82
2022/04/25 02:56:03;;;;;;;9.67;8.87;;;9.30;99.90;;;;;;5099806;28;20244;-82
2022/04/25 02:58:31;;;;;;;11.43;10.43;;;9.30;99.90;;;;;;5104158;28;20293;-82
2022/04/25 03:00:59;;;;;;;11.10;10.20;;;9.30;99.90;;;;;;5110824;28;20287;-82
2022/04/25 03:03:27;;;;;;;9.40;8.70;;;9.30;99.90;;;;;;5113863;28;20666;-82
2022/04/25 03:05:56;;;;;;;10.90;10.10;;;9.30;99.90;;;;;;5100930;28;20229;-82
2022/04/25 03:08:24;;;;;;;12.63;11.63;;;9.30;99.90;;;;;;5111078;28;20213;-79
2022/04/25 03:10:52;;;;;;;10.80;10.00;;;9.30;99.90;;;;;;5091282;28;20202;-83
2022/04/25 03:13:20;;;;;;;11.53;10.53;;;9.30;99.90;;;;;;5109204;28;20221;-83
2022/04/25 03:15:48;;;;;;;10.00;9.20;;;9.30;99.90;;;;;;5095468;28;20278;-81
2022/04/25 03:18:18;;;;;;;10.03;9.23;;;9.30;99.90;;;;;;5096347;28;20201;-81
2022/04/25 03:20:48;;;;;;;10.20;9.30;;;9.30;99.90;;;;;;5096994;28;20692;-79
2022/04/25 03:23:17;;;;;;;9.10;8.37;;;9.30;99.90;;;;;;5106482;28;20229;-79
2022/04/25 03:25:44;;;;;;;10.40;9.50;;;9.30;99.90;;;;;;5108765;28;20220;-79
2022/04/25 03:28:11;;;;;;;11.10;10.20;;;9.30;99.90;;;;;;5106623;28;20223;-80
2022/04/25 03:30:38;;;;;;;11.23;10.23;;;9.30;99.90;;;;;;5110821;28;20201;-79
2022/04/25 03:33:06;;;;;;;9.80;8.90;;;9.20;99.90;;;;;;5110450;28;20197;-79
2022/04/25 03:35:33;;;;;;;10.50;9.50;;;9.20;99.90;;;;;;5107261;28;20316;-78
2022/04/25 03:38:01;;;;;;;9.10;8.30;;;9.10;99.90;;;;;;5109550;28;20219;-80
2022/04/25 03:40:29;;;;;;;9.90;8.97;;;9.10;99.90;;;;;;5105996;28;20293;-81
2022/04/25 03:42:56;;;;;;;13.20;12.10;;;9.00;99.90;;;;;;5104806;28;20266;-81
2022/04/25 03:45:23;;;;;;;12.83;11.70;;;8.90;99.90;;;;;;5105688;28;20653;-77
2022/04/25 03:47:50;;;;;;;14.10;12.90;;;8.90;99.90;;;;;;5105831;28;20651;-78
2022/04/25 03:50:18;;;;;;;11.60;10.60;;;8.80;99.90;;;;;;5107572;28;20733;-78
2022/04/25 03:52:46;;;;;;;15.53;14.33;;;8.80;99.90;;;;;;5104084;28;20200;-77
2022/04/25 03:58:02;;;;;;;12.10;10.90;;;8.70;99.90;;;;;;5104582;28;20191;-79
2022/04/25 04:00:30;;;;;;;14.97;13.77;;;8.70;99.90;;;;;;5104799;28;20263;-79
2022/04/25 04:02:58;;;;;;;15.13;13.83;;;8.70;99.90;;;;;;5104255;28;20198;-79
2022/04/25 04:05:26;;;;;;;15.70;14.30;;;8.70;99.90;;;;;;5106958;28;20197;-79
2022/04/25 04:07:53;;;;;;;14.33;13.23;;;8.70;99.90;;;;;;5103236;28;20217;-80
2022/04/25 04:10:21;;;;;;;13.97;12.87;;;8.70;99.90;;;;;;5100997;28;20198;-80
2022/04/25 04:12:48;;;;;;;14.77;13.47;;;8.70;99.90;;;;;;5104172;28;20201;-79
2022/04/25 04:15:17;;;;;;;14.17;12.97;;;8.80;99.90;;;;;;5104129;28;20222;-78
2022/04/25 04:17:45;;;;;;;15.67;14.37;;;8.80;99.90;;;;;;5100019;28;20217;-79
2022/04/25 04:20:14;;;;;;;14.20;13.00;;;8.80;99.90;;;;;;5106653;28;20253;-80
2022/04/25 04:22:41;;;;;;;14.47;13.20;;;8.90;99.90;;;;;;5102958;28;20197;-80
2022/04/25 04:25:11;;;;;;;14.60;13.40;;;8.90;99.90;;;;;;5107454;28;20207;-80
2022/04/25 04:27:39;;;;;;;15.83;14.53;;;8.90;99.90;;;;;;5094583;28;20239;-80
2022/04/25 04:30:09;;;;;;;15.03;13.83;;;8.90;99.90;;;;;;5102661;28;20288;-80
2022/04/25 04:32:40;;;;;;;15.63;14.33;;;9.00;99.90;;;;;;5111061;27;20209;-80
2022/04/25 04:35:09;;;;;;;14.27;13.13;;;9.00;99.90;;;;;;5106574;28;20212;-79
2022/04/25 04:37:37;;;;;;;12.80;11.60;;;9.00;99.90;;;;;;5099118;28;20666;-80
2022/04/25 04:42:50;;;;;;;14.63;13.33;;;9.10;99.90;;;;;;5093564;28;20689;-80
2022/04/25 04:45:17;;;;;;;13.20;12.03;;;9.20;99.90;;;;;;5099560;28;20193;-80
2022/04/25 04:47:46;;;;;;;12.83;11.73;;;9.20;99.90;;;;;;5102711;28;20217;-79
2022/04/25 04:50:15;;;;;;;13.67;12.57;;;9.30;99.90;;;;;;5102668;28;20285;-78
2022/04/25 04:52:43;;;;;;;10.90;10.00;;;9.30;99.90;;;;;;5095458;28;20201;-80
2022/04/25 04:55:11;;;;;;;10.27;9.27;;;9.40;99.90;;;;;;5094464;28;20200;-80
2022/04/25 04:57:39;;;;;;;11.10;10.10;;;9.40;99.90;;;;;;5098498;28;20228;-80
2022/04/25 05:00:08;;;;;;;11.87;10.73;;;9.40;99.90;;;;;;5106334;28;20561;-78
2022/04/25 05:02:36;;;;;;;9.87;8.87;;;9.50;99.90;;;;;;5101149;28;20194;-80
2022/04/25 05:05:05;;;;;;;13.10;11.90;;;9.50;99.90;;;;;;5102159;28;20205;-79
2022/04/25 05:07:32;;;;;;;12.77;11.67;;;9.50;99.90;;;;;;5104828;28;20201;-80
2022/04/25 05:09:59;;;;;;;13.57;12.47;;;9.50;99.90;;;;;;5102683;28;20190;-80
2022/04/25 05:12:27;;;;;;;13.47;12.27;;;9.60;99.90;;;;;;5104501;28;20345;-78
2022/04/25 05:14:55;;;;;;;14.47;13.27;;;9.70;99.90;;;;;;5100842;28;20615;-80
2022/04/25 05:17:22;;;;;;;13.97;12.80;;;9.70;99.90;;;;;;5098038;28;20209;-80
2022/04/25 05:19:49;;;;;;;13.77;12.57;;;9.80;99.90;;;;;;5105502;28;20216;-78
2022/04/25 05:22:18;;;;;;;11.43;10.43;;;9.70;99.90;;;;;;5101111;28;20197;-80
2022/04/25 05:24:45;;;;;;;12.27;11.27;;;9.80;99.90;;;;;;5104078;28;20215;-79
2022/04/25 05:27:12;;;;;;;13.60;12.40;;;9.80;99.90;;;;;;5102629;28;20230;-80
2022/04/25 05:29:39;;;;;;;13.00;11.90;;;9.80;99.90;;;;;;5104625;28;20568;-80
2022/04/25 05:32:07;;;;;;;12.60;11.50;;;9.90;99.90;;;;;;5101941;28;20287;-80
2022/04/25 05:34:34;;;;;;;13.37;12.27;;;9.90;99.90;;;;;;5098233;28;20201;-81
2022/04/25 05:37:01;;;;;;;13.00;11.90;;;10.00;99.90;;;;;;5098619;28;20313;-80
2022/04/25 05:39:30;;;;;;;14.50;13.30;;;10.00;99.90;;;;;;5101465;28;20198;-80
2022/04/25 05:41:57;;;;;;;14.03;12.83;;;10.10;99.90;;;;;;5101141;28;20194;-79
2022/04/25 05:44:24;;;;;;;12.73;11.67;;;10.20;99.90;;;;;;5103045;28;20197;-80
2022/04/25 05:46:52;;;;;;;13.13;12.00;;;10.20;99.90;;;;;;5103306;28;20229;-79
2022/04/25 05:52:05;;;;;;;11.20;10.20;;;10.40;99.90;;;;;;5102602;28;20194;-80
2022/04/25 05:54:36;;;;;;;9.50;8.60;;;10.60;99.90;;;;;;5098366;28;20278;-80
2022/04/25 05:57:04;;;;;;;13.33;12.23;;;10.70;99.90;;;;;;5097998;28;20292;-80
2022/04/25 05:59:31;;;;;;;12.53;11.43;;;10.90;99.90;;;;;;5101650;28;20201;-79
2022/04/25 06:01:58;;;;;;;13.40;12.30;;;11.00;99.90;;;;;;5100705;28;20539;-81
2022/04/25 06:04:25;;;;;;;10.67;9.60;;;10.90;99.90;;;;;;5102760;28;20666;-80
2022/04/25 06:06:52;;;;;;;10.10;9.03;;;10.80;99.90;;;;;;5108004;28;20304;-80
2022/04/25 06:09:19;;;;;;;11.17;10.07;;;10.80;99.90;;;;;;5101724;28;20218;-80
2022/04/25 06:11:49;;;;;;;10.37;9.47;;;10.80;99.90;;;;;;5102726;28;20193;-79
2022/04/25 06:14:16;;;;;;;11.40;10.30;;;10.90;99.90;;;;;;5101746;28;20243;-80
2022/04/25 06:16:43;;;;;;;13.17;11.97;;;11.00;99.90;;;;;;5106677;28;20217;-81
2022/04/25 06:19:11;;;;;;;14.93;13.67;;;11.20;99.90;;;;;;5097527;28;20352;-80
2022/04/25 06:21:38;;;;;;;14.93;13.43;;;11.30;99.90;;;;;;5109418;28;20860;-79
2022/04/25 06:24:06;;;;;;;13.17;11.97;;;11.30;99.90;;;;;;5100532;28;20194;-80
2022/04/25 06:26:34;;;;;;;15.07;13.73;;;11.40;99.90;;;;;;5103128;28;20215;-80
2022/04/25 06:29:03;;;;;;;10.50;9.40;;;11.40;99.90;;;;;;5101706;28;20220;-80
2022/04/25 06:31:30;;;;;;;14.30;13.07;;;11.50;99.90;;;;;;5108316;28;20589;-79
2022/04/25 06:33:58;;;;;;;14.00;12.80;;;11.60;99.90;;;;;;5099280;28;20198;-80
2022/04/25 06:36:25;;;;;;;16.23;14.83;;;11.70;99.90;;;;;;5103343;28;20786;-79
2022/04/25 06:38:52;;;;;;;13.97;12.63;;;11.80;99.90;;;;;;5101017;28;20216;-80
2022/04/25 06:41:21;;;;;;;13.97;12.77;;;11.80;99.90;;;;;;5101648;28;20197;-79
2022/04/25 06:43:48;;;;;;;14.90;13.60;;;11.80;99.90;;;;;;5104066;28;20249;-79
2022/04/25 06:46:16;;;;;;;14.23;12.93;;;11.70;99.90;;;;;;5105654;28;20266;-80
2022/04/25 06:49:19;;;;;;;12.67;10.63;;;11.60;99.90;;;;;;5100722;28;20248;-80
2022/04/25 06:51:31;;;;;;;10.93;9.43;;;11.60;99.90;;;;;;5098795;28;20207;-79
2022/04/25 06:54:00;;;;;;;10.90;9.80;;;11.90;99.90;;;;;;5108076;28;20206;-79
2022/04/25 06:56:27;;;;;;;16.10;14.90;;;12.10;99.90;;;;;;5102961;28;20216;-79
2022/04/25 06:58:54;;;;;;;17.87;16.23;;;12.30;99.90;;;;;;5104321;28;20196;-79
2022/04/25 07:01:22;;;;;;;19.57;18.03;;;12.20;99.90;;;;;;5105170;28;20248;-80
2022/04/25 07:03:49;;;;;;;18.20;16.70;;;12.10;99.90;;;;;;5104718;28;20192;-79
2022/04/25 07:06:16;;;;;;;17.13;15.77;;;12.00;99.90;;;;;;5105442;28;20317;-81
2022/04/25 07:08:43;;;;;;;18.87;17.37;;;11.90;99.90;;;;;;5101770;28;20258;-80
2022/04/25 07:11:10;;;;;;;19.83;18.00;;;12.00;99.90;;;;;;5099095;28;20207;-80
2022/04/25 07:13:41;;;;;;;17.40;16.03;;;11.80;99.90;;;;;;5095790;28;20196;-80
2022/04/25 07:16:09;;;;;;;18.00;16.60;;;11.90;99.90;;;;;;5104390;28;20615;-79
2022/04/25 07:18:37;;;;;;;17.17;15.77;;;12.00;99.90;;;;;;5107864;28;20287;-80
2022/04/25 07:28:48;;;;;;;17.80;16.37;;;12.30;99.90;;;;;;5103983;28;20294;-80
2022/04/25 07:29:25;;;;;;;18.10;16.57;;;12.40;99.90;;;;;;5105221;28;20249;-80
2022/04/25 07:31:53;;;;;;;17.70;16.20;;;12.50;99.90;;;;;;5100671;28;20570;-79
2022/04/25 07:34:22;;;;;;;17.50;16.00;;;12.80;99.90;;;;;;5104325;28;20725;-79
2022/04/25 07:36:51;;;;;;;17.43;15.90;;;12.90;99.90;;;;;;5106778;28;20222;-80
2022/04/25 07:39:19;;;;;;;14.87;13.37;;;13.10;99.90;;;;;;5105372;28;20243;-80
2022/04/25 07:41:46;;;;;;;12.73;11.43;;;13.50;99.90;;;;;;5106912;28;20288;-79
2022/04/25 07:44:14;;;;;;;18.93;17.33;;;14.10;99.90;;;;;;5111658;28;20288;-79
2022/04/25 07:46:41;;;;;;;13.20;11.90;;;14.40;99.90;;;;;;5120429;22;20713;-81
2022/04/25 07:49:09;;;;;;;15.50;14.10;;;14.60;99.90;;;;;;5098712;28;20314;-80
2022/04/25 07:51:37;;;;;;;18.90;17.30;;;14.60;99.90;;;;;;5103058;28;20287;-80
2022/04/25 07:54:05;;;;;;;13.43;12.03;;;14.40;99.90;;;;;;5100767;28;20275;-79
2022/04/25 07:56:32;;;;;;;15.93;13.37;;;14.40;99.90;;;;;;5102024;28;20320;-80
2022/04/25 07:59:00;;;;;;;18.23;16.73;;;14.30;99.90;;;;;;5098090;28;20194;-80
2022/04/25 08:01:27;;;;;;;18.13;16.63;;;14.40;99.90;;;;;;5106435;28;20286;-81
2022/04/25 08:03:54;;;;;;;17.03;15.63;;;14.90;99.90;;;;;;5098935;28;20360;-80
2022/04/25 08:06:21;;;;;;;12.43;11.23;;;15.50;99.90;;;;;;5098654;28;20251;-81
2022/04/25 08:08:50;;;;;;;15.30;13.90;;;16.10;99.90;;;;;;5101561;28;20221;-81
2022/04/25 08:11:17;;;;;;;15.77;14.37;;;16.50;99.90;;;;;;5101885;28;20630;-80
2022/04/25 08:19:13;;;;;;;13.03;11.93;;;16.90;99.90;;;;;;5101001;28;20771;-81
2022/04/25 08:21:40;;;;;;;15.90;14.70;;;17.10;99.90;;;;;;5112682;28;20253;-81
2022/04/25 08:24:10;;;;;;;16.30;15.00;;;17.40;99.90;;;;;;5112196;28;20276;-81
2022/04/25 08:26:37;;;;;;;10.63;9.63;;;17.70;99.90;;;;;;5090240;28;20214;-81
2022/04/25 08:29:05;;;;;;;12.87;11.87;;;18.00;99.90;;;;;;5092724;28;20411;-81
2022/04/25 08:31:32;;;;;;;13.40;12.30;;;18.50;99.90;;;;;;5102826;28;20228;-81
2022/04/25 08:34:00;;;;;;;12.70;11.70;;;18.40;99.90;;;;;;5101032;28;20211;-81
2022/04/25 08:36:27;;;;;;;11.23;10.23;;;18.40;99.90;;;;;;5103138;28;20257;-81
2022/04/25 08:38:54;;;;;;;10.17;9.10;;;18.00;99.90;;;;;;5094773;28;20287;-80
2022/04/25 08:41:28;;;;;;;10.50;9.60;;;18.20;99.90;;;;;;5089962;28;20292;-81
2022/04/25 08:43:56;;;;;;;12.37;11.17;;;18.30;99.90;;;;;;5101851;28;20226;-81
2022/04/25 08:46:24;;;;;;;13.97;12.67;;;18.30;99.90;;;;;;5097918;28;20305;-81
2022/04/25 08:48:52;;;;;;;13.50;12.40;;;18.20;99.90;;;;;;5099848;28;20213;-81
2022/04/25 08:51:22;;;;;;;12.83;11.73;;;18.20;99.90;;;;;;5101185;28;20225;-81
2022/04/25 08:53:51;;;;;;;20.17;18.30;;;18.90;99.90;;;;;;5093516;28;20194;-80
2022/04/25 08:56:22;;;;;;;11.87;10.77;;;18.50;99.90;;;;;;5100397;28;20224;-81
2022/04/25 08:58:52;;;;;;;15.27;13.97;;;18.50;99.90;;;;;;5096745;28;20195;-81
2022/04/25 09:01:19;;;;;;;10.57;9.57;;;18.10;99.90;;;;;;5103779;28;20200;-81
2022/04/25 09:03:46;;;;;;;11.57;10.47;;;17.90;99.90;;;;;;5099925;28;20204;-81
2022/04/25 09:06:13;;;;;;;13.50;12.33;;;17.70;99.90;;;;;;5097482;28;20227;-80
2022/04/25 09:08:42;;;;;;;15.90;14.60;;;17.40;99.90;;;;;;5099618;28;20219;-81
2022/04/25 09:13:55;;;;;;;12.80;11.60;;;17.10;99.90;;;;;;5094238;28;20215;-80
2022/04/25 09:16:22;;;;;;;12.63;11.53;;;17.30;99.90;;;;;;5093310;28;20758;-80
2022/04/25 09:18:50;;;;;;;13.07;11.97;;;18.00;99.90;;;;;;5099222;28;20193;-80
2022/04/25 09:21:17;;;;;;;14.50;13.30;;;18.70;99.90;;;;;;5101201;28;20211;-81
2022/04/25 09:23:44;;;;;;;14.73;13.60;;;19.10;99.90;;;;;;5095815;28;20204;-81
2022/04/25 09:26:12;;;;;;;10.33;9.33;;;18.90;99.90;;;;;;5097894;28;20227;-81
2022/04/25 09:28:50;;;;;;;14.30;13.10;;;18.80;99.90;;;;;;5091947;28;20233;-81
2022/04/25 09:31:21;;;;;;;12.73;11.67;;;18.80;99.90;;;;;;5097762;28;20197;-81
2022/04/25 09:33:49;;;;;;;14.23;12.90;;;18.50;99.90;;;;;;5097621;28;20215;-82
2022/04/25 09:36:16;;;;;;;15.37;14.07;;;18.70;99.90;;;;;;5094690;28;20247;-81
2022/04/25 09:38:45;;;;;;;11.20;10.00;;;18.50;99.90;;;;;;5103085;28;20246;-81
2022/04/25 09:41:14;;;;;;;8.67;7.87;;;18.20;99.90;;;;;;5098253;28;20205;-81
2022/04/25 09:43:47;;;;;;;10.13;9.10;;;18.50;99.90;;;;;;5100928;28;20188;-81
2022/04/25 09:46:15;;;;;;;10.60;8.17;;;18.40;99.90;;;;;;5099082;27;20216;-81
2022/04/25 09:49:02;;;;;;;8.97;8.03;;;18.60;99.90;;;;;;5117625;27;20216;-82
2022/04/25 09:51:29;;;;;;;13.13;11.93;;;18.90;99.90;;;;;;5116897;27;20199;-81
2022/04/25 09:53:57;;;;;;;10.93;9.93;;;18.90;99.90;;;;;;5095933;27;20298;-81
2022/04/25 09:56:25;;;;;;;9.83;8.83;;;18.50;99.90;;;;;;5092499;28;20222;-81
2022/04/25 09:59:01;;;;;;;9.63;8.43;;;18.20;99.90;;;;;;5096192;28;20187;-81
2022/04/25 10:01:29;;;;;;;10.40;9.47;;;18.60;99.90;;;;;;5100188;28;20195;-80
2022/04/25 10:03:57;;;;;;;13.20;11.97;;;18.40;99.90;;;;;;5098270;28;20580;-81
2022/04/25 10:06:25;;;;;;;13.40;12.30;;;18.50;99.90;;;;;;5103526;28;20213;-81
2022/04/25 10:08:53;;;;;;;11.87;10.87;;;18.30;99.90;;;;;;5114647;28;20703;-81
2022/04/25 10:11:22;;;;;;;8.00;7.20;;;18.30;99.90;;;;;;5099014;28;20228;-81
2022/04/25 10:13:49;;;;;;;9.27;8.37;;;18.70;99.90;;;;;;5101844;28;20246;-81
2022/04/25 10:16:21;;;;;;;12.10;11.10;;;18.20;99.90;;;;;;5093493;27;20750;-81
2022/04/25 10:18:48;;;;;;;13.30;12.20;;;18.20;99.90;;;;;;5103014;28;20641;-81
2022/04/25 10:21:15;;;;;;;14.07;12.97;;;18.00;99.90;;;;;;5104378;27;20194;-80
2022/04/25 10:23:45;;;;;;;12.33;11.33;;;17.80;99.90;;;;;;5100669;28;20277;-80
2022/04/25 10:26:12;;;;;;;14.70;13.30;;;17.60;99.90;;;;;;5103663;28;20297;-81
2022/04/25 10:28:45;;;;;;;12.93;11.83;;;17.20;99.90;;;;;;5123421;27;20291;-81
2022/04/25 10:31:20;;;;;;;13.13;12.13;;;17.00;99.90;;;;;;5106010;27;20189;-81
2022/04/25 10:33:50;;;;;;;12.23;11.13;;;17.00;99.90;;;;;;5100938;27;20216;-81
2022/04/25 10:36:43;;;;;;;12.23;11.13;;;16.80;99.90;;;;;;5103302;27;20220;-81
2022/04/25 10:39:19;;;;;;;12.47;11.37;;;17.10;99.90;;;;;;5113661;27;20674;-80
2022/04/25 10:44:55;;;;;;;11.80;10.70;;;17.80;99.90;;;;;;5105792;27;20229;-81
2022/04/25 10:47:24;;;;;;;10.80;9.80;;;17.80;99.90;;;;;;5103060;27;20703;-81
2022/04/25 10:50:02;;;;;;;11.03;10.00;;;17.60;99.90;;;;;;5099842;28;20261;-81
2022/04/25 10:55:42;;;;;;;12.60;11.40;;;17.40;99.90;;;;;;5095426;28;20186;-81
2022/04/25 10:58:15;;;;;;;12.57;11.37;;;17.20;99.90;;;;;;5102233;28;20645;-81
2022/04/25 11:00:56;;;;;;;11.10;10.10;;;17.00;99.90;;;;;;5098577;28;20198;-81
2022/04/25 11:03:30;;;;;;;10.50;9.50;;;16.90;99.90;;;;;;5118987;27;20216;-81
2022/04/25 11:06:00;;;;;;;10.67;9.67;;;17.10;99.90;;;;;;5103785;27;20223;-81
2022/04/25 11:08:38;;;;;;;9.63;8.63;;;17.00;99.90;;;;;;5111645;27;20208;-80
2022/04/25 11:11:16;;;;;;;11.83;10.73;;;17.00;99.90;;;;;;5096301;28;20186;-81
2022/04/25 11:14:12;;;;;;;12.20;11.20;;;16.90;99.90;;;;;;5099091;28;20285;-81
2022/04/25 11:16:40;;;;;;;14.40;13.17;;;16.60;99.90;;;;;;5112511;27;20210;-81
2022/04/25 11:19:20;;;;;;;14.50;13.30;;;16.50;99.90;;;;;;5102244;28;20228;-81
2022/04/25 11:21:50;;;;;;;12.43;11.33;;;16.40;99.90;;;;;;5099120;28;20681;-81
2022/04/25 11:24:30;;;;;;;9.67;8.80;;;16.00;99.90;;;;;;5101213;27;20204;-80
2022/04/25 11:27:00;;;;;;;8.00;7.30;;;15.70;99.90;;;;;;5115963;27;20787;-81
2022/04/25 11:29:28;;;;;;;7.00;6.33;;;15.40;99.90;;;;;;5110924;27;20584;-80
2022/04/25 11:32:26;;;;;;;10.80;9.90;;;14.90;99.90;;;;;;5097522;28;20565;-80
2022/04/25 11:34:53;;;;;;;8.90;8.20;;;14.50;99.90;;;;;;5101879;27;20210;-80
2022/04/25 11:37:22;;;;;;;9.30;8.60;;;14.00;99.90;;;;;;5100311;27;20295;-81
2022/04/25 11:39:57;;;;;;;11.77;10.73;;;13.60;99.90;;;;;;5106877;28;20190;-81
2022/04/25 11:42:29;;;;;;;10.70;7.50;;;13.40;99.90;;;;;;5098028;27;20213;-81
2022/04/25 11:44:57;;;;;;;12.00;8.70;;;13.20;99.90;;;;;;5125094;27;20197;-80
2022/04/25 11:47:24;;;;;;;15.77;14.40;;;13.10;99.90;;;;;;5096640;27;20708;-80
2022/04/25 11:49:59;;;;;;;12.80;11.60;;;12.90;99.90;;;;;;5120597;27;20236;-81
2022/04/25 11:52:26;;;;;;;14.77;13.67;;;12.80;99.90;;;;;;5102464;27;20253;-81
2022/04/25 11:54:55;;;;;;;14.97;13.47;;;12.60;99.90;;;;;;5101906;28;20198;-80
2022/04/25 11:57:22;;;;;;;13.60;12.50;;;12.50;99.90;;;;;;5104991;27;20259;-79
2022/04/25 12:00:05;;;;;;;12.57;11.40;;;12.40;99.90;;;;;;5098859;28;20196;-80
2022/04/25 12:02:39;;;;;;;12.27;11.37;;;12.30;99.90;;;;;;5115000;27;20212;-80
2022/04/25 12:05:07;;;;;;;12.73;11.83;;;12.20;99.90;;;;;;5097335;27;20224;-80
2022/04/25 12:07:35;;;;;;;15.60;14.40;;;12.10;99.90;;;;;;5109097;27;20310;-80
2022/04/25 12:15:40;;;;;;;14.47;13.37;;;12.20;99.90;;;;;;5089477;27;20674;-80
2022/04/25 12:18:17;;;;;;;15.40;14.10;;;12.30;99.90;;;;;;5110973;27;20224;-80
2022/04/25 12:20:47;;;;;;;9.90;9.00;;;12.30;99.90;;;;;;5093643;28;20188;-81
2022/04/25 12:23:21;;;;;;;9.73;8.83;;;12.40;99.90;;;;;;5101782;27;20220;-80
2022/04/25 12:25:49;;;;;;;9.67;8.87;;;12.50;99.90;;;;;;5097615;28;20199;-80
2022/04/25 12:28:18;;;;;;;9.90;8.87;;;12.50;99.90;;;;;;5114812;27;20196;-80
2022/04/25 12:30:53;;;;;;;7.77;6.97;;;12.60;99.90;;;;;;5100899;27;20583;-80
2022/04/25 12:33:21;;;;;;;6.83;6.13;;;12.50;99.90;;;;;;5091065;27;20287;-80
2022/04/25 12:35:51;;;;;;;7.73;6.93;;;12.50;99.90;;;;;;5103838;27;20193;-80
2022/04/25 12:38:40;;;;;;;6.93;6.10;;;12.50;99.90;;;;;;5099041;27;20198;-81
2022/04/25 12:41:09;;;;;;;8.43;6.23;;;12.60;99.90;;;;;;5098209;28;20198;-80
2022/04/25 12:43:37;;;;;;;8.00;6.30;;;12.60;99.90;;;;;;5105768;27;20672;-80
2022/04/25 12:46:07;;;;;;;6.00;5.40;;;12.60;99.90;;;;;;5099293;28;20302;-80
2022/04/25 12:49:00;;;;;;;6.47;5.97;;;12.60;99.90;;;;;;5106175;27;20197;-80
2022/04/25 12:51:29;;;;;;;10.50;9.73;;;12.80;99.90;;;;;;5103171;27;20220;-81
2022/04/25 12:53:56;;;;;;;10.30;9.53;;;13.00;99.90;;;;;;5098240;28;20221;-80
2022/04/25 12:56:24;;;;;;;11.30;10.47;;;13.10;99.90;;;;;;5097949;27;20212;-80
2022/04/25 12:58:51;;;;;;;5.40;4.90;;;13.10;99.90;;;;;;5099990;28;20519;-81
2022/04/25 13:01:31;;;;;;;10.67;9.87;;;13.30;99.90;;;;;;5103475;27;20683;-80
2022/04/25 13:04:10;;;;;;;4.90;4.40;;;13.20;99.90;;;;;;5101456;27;20213;-80
2022/04/25 13:06:37;;;;;;;9.17;8.57;;;13.40;99.90;;;;;;5088229;27;20217;-81
2022/04/25 13:09:06;;;;;;;8.10;7.40;;;13.70;99.90;;;;;;5097450;28;20230;-81
2022/04/25 13:11:33;;;;;;;9.33;8.63;;;13.80;99.90;;;;;;5103245;27;20719;-81
2022/04/25 13:14:00;;;;;;;6.90;6.27;;;14.10;99.90;;;;;;5098908;28;20274;-82
2022/04/25 13:16:27;;;;;;;9.83;9.13;;;14.40;99.90;;;;;;5104766;27;20218;-80
2022/04/25 13:18:55;;;;;;;6.57;5.97;;;14.70;99.90;;;;;;5095953;27;20196;-81
2022/04/25 13:21:22;;;;;;;9.23;8.53;;;14.80;99.90;;;;;;5120278;27;20668;-81
2022/04/25 13:23:50;;;;;;;7.33;6.63;;;14.60;99.90;;;;;;5103105;27;20208;-81
2022/04/25 13:26:18;;;;;;;5.60;5.10;;;14.40;99.90;;;;;;5114851;27;20311;-81